Saturday, August 29, 2015, 3:16 AM EDT

KESN, Easton / Newman Field

Location: Easton, MD, United States Lat: 38.8
Local Time: 3:16 AM EDT ( 7:16 GMT) Lon: -76.067
Time Zone: US/Eastern Elev: 72 ft

Show me the last for .
Show Decoded

2015-08-28 20:50 METAR KESN 290050Z 00000KT 10SM SKC 26/14 A3019 =
2015-08-28 18:50 METAR KESN 282250Z 00000KT 10SM SKC 26/14 A3019 =
2015-08-28 15:50 METAR KESN 281950Z 31008KT 10SM SCT050 28/14 A3020 =
2015-08-28 14:50 METAR KESN 281850Z 29010KT 10SM SCT050 28/15 A3022 =
2015-08-28 11:48 METAR KESN 281548Z 02004KT 10SM SCT120 26/14 A3025 =
2015-08-28 10:55 METAR KESN 281455Z 05006KT 10SM SKC 24/15 A3025 =
2015-08-28 09:55 METAR KESN 281355Z 05006KT 10SM SKC 23/16 A3025 =
2015-08-28 08:56 METAR KESN 281256Z 05006KT 10SM SKC 22/17 A3023 =
2015-08-28 07:45 METAR KESN 281145Z 05003KT 10SM SKC 18/17 A3021 =
2015-08-28 06:45 METAR KESN 281045Z 00000KT 10SM SKC 15/15 A3020 =
2015-08-28 05:45 METAR KESN 280945Z 00000KT 10SM SKC 15/15 A3018 =

Support USWX by starting your Amazon purchase here.